sensor_id;sensor_type;location;lat;lon;timestamp;P1;durP1;ratioP1;P2;durP2;ratioP2
10440;SDS011;5268;49.346;9.522;2024-01-16T04:09:46;6.60;;;4.50;;
10440;SDS011;5268;49.346;9.522;2024-01-16T04:14:48;6.73;;;4.37;;
10440;SDS011;5268;49.346;9.522;2024-01-16T04:19:50;7.57;;;4.47;;
10440;SDS011;5268;49.346;9.522;2024-01-16T04:24:54;6.17;;;4.27;;
10440;SDS011;5268;49.346;9.522;2024-01-16T04:29:55;7.00;;;5.60;;
10440;SDS011;5268;49.346;9.522;2024-01-16T04:34:58;6.83;;;4.90;;
10440;SDS011;5268;49.346;9.522;2024-01-16T04:40:01;7.00;;;4.60;;
10440;SDS011;5268;49.346;9.522;2024-01-16T04:45:05;7.60;;;4.80;;
10440;SDS011;5268;49.346;9.522;2024-01-16T04:50:08;12.40;;;7.93;;
10440;SDS011;5268;49.346;9.522;2024-01-16T04:55:12;7.10;;;5.00;;
10440;SDS011;5268;49.346;9.522;2024-01-16T05:00:14;5.93;;;4.43;;
10440;SDS011;5268;49.346;9.522;2024-01-16T05:05:16;8.33;;;4.67;;
10440;SDS011;5268;49.346;9.522;2024-01-16T05:10:20;7.43;;;4.30;;
10440;SDS011;5268;49.346;9.522;2024-01-16T05:15:22;7.13;;;4.47;;
10440;SDS011;5268;49.346;9.522;2024-01-16T05:20:24;10.20;;;5.60;;
10440;SDS011;5268;49.346;9.522;2024-01-16T05:25:27;6.00;;;4.90;;
10440;SDS011;5268;49.346;9.522;2024-01-16T05:30:30;7.07;;;4.87;;
10440;SDS011;5268;49.346;9.522;2024-01-16T05:35:33;6.40;;;4.47;;
10440;SDS011;5268;49.346;9.522;2024-01-16T05:40:36;7.17;;;4.23;;
10440;SDS011;5268;49.346;9.522;2024-01-16T05:45:38;6.43;;;4.47;;
10440;SDS011;5268;49.346;9.522;2024-01-16T05:50:40;5.53;;;4.27;;
10440;SDS011;5268;49.346;9.522;2024-01-16T05:55:44;7.40;;;4.27;;
10440;SDS011;5268;49.346;9.522;2024-01-16T06:00:46;6.23;;;4.13;;
10440;SDS011;5268;49.346;9.522;2024-01-16T06:05:48;8.03;;;4.30;;
10440;SDS011;5268;49.346;9.522;2024-01-16T06:10:51;5.80;;;4.03;;
10440;SDS011;5268;49.346;9.522;2024-01-16T06:15:53;7.87;;;4.30;;
10440;SDS011;5268;49.346;9.522;2024-01-16T06:20:55;7.07;;;4.43;;
10440;SDS011;5268;49.346;9.522;2024-01-16T06:25:59;6.50;;;4.50;;
10440;SDS011;5268;49.346;9.522;2024-01-16T06:31:01;7.50;;;4.23;;
10440;SDS011;5268;49.346;9.522;2024-01-16T06:36:03;8.63;;;4.40;;
10440;SDS011;5268;49.346;9.522;2024-01-16T06:41:07;8.27;;;4.53;;
10440;SDS011;5268;49.346;9.522;2024-01-16T06:46:09;6.43;;;4.30;;
10440;SDS011;5268;49.346;9.522;2024-01-16T06:51:11;6.93;;;4.07;;
10440;SDS011;5268;49.346;9.522;2024-01-16T06:56:15;8.40;;;4.93;;
10440;SDS011;5268;49.346;9.522;2024-01-16T07:01:18;7.30;;;5.00;;
10440;SDS011;5268;49.346;9.522;2024-01-16T07:06:20;9.73;;;5.60;;
10440;SDS011;5268;49.346;9.522;2024-01-16T07:11:23;12.10;;;7.87;;
10440;SDS011;5268;49.346;9.522;2024-01-16T07:16:25;8.43;;;5.30;;
10440;SDS011;5268;49.346;9.522;2024-01-16T07:21:27;9.13;;;4.80;;
10440;SDS011;5268;49.346;9.522;2024-01-16T07:26:30;6.33;;;4.17;;
10440;SDS011;5268;49.346;9.522;2024-01-16T07:31:32;9.00;;;5.67;;
10440;SDS011;5268;49.346;9.522;2024-01-16T07:36:34;13.60;;;9.50;;
10440;SDS011;5268;49.346;9.522;2024-01-16T07:41:38;10.73;;;8.20;;
10440;SDS011;5268;49.346;9.522;2024-01-16T07:46:40;9.13;;;6.80;;
10440;SDS011;5268;49.346;9.522;2024-01-16T07:51:42;15.67;;;9.90;;
10440;SDS011;5268;49.346;9.522;2024-01-16T07:56:45;16.77;;;8.63;;
10440;SDS011;5268;49.346;9.522;2024-01-16T08:01:47;8.77;;;6.10;;
10440;SDS011;5268;49.346;9.522;2024-01-16T08:06:49;6.63;;;4.47;;
10440;SDS011;5268;49.346;9.522;2024-01-16T08:11:53;7.33;;;4.60;;
10440;SDS011;5268;49.346;9.522;2024-01-16T08:16:55;8.63;;;5.83;;
10440;SDS011;5268;49.346;9.522;2024-01-16T08:21:57;8.70;;;6.30;;
10440;SDS011;5268;49.346;9.522;2024-01-16T08:27:00;10.27;;;5.63;;
10440;SDS011;5268;49.346;9.522;2024-01-16T08:32:03;9.33;;;5.77;;
10440;SDS011;5268;49.346;9.522;2024-01-16T08:37:05;8.73;;;5.77;;
10440;SDS011;5268;49.346;9.522;2024-01-16T08:42:09;7.57;;;5.17;;
10440;SDS011;5268;49.346;9.522;2024-01-16T08:47:12;11.47;;;6.17;;
10440;SDS011;5268;49.346;9.522;2024-01-16T08:52:13;6.70;;;4.87;;
10440;SDS011;5268;49.346;9.522;2024-01-16T08:57:17;7.37;;;4.50;;
10440;SDS011;5268;49.346;9.522;2024-01-16T09:02:19;7.43;;;4.67;;
10440;SDS011;5268;49.346;9.522;2024-01-16T09:07:21;7.37;;;4.50;;
10440;SDS011;5268;49.346;9.522;2024-01-16T09:12:25;6.03;;;4.30;;
10440;SDS011;5268;49.346;9.522;2024-01-16T09:17:27;20.10;;;12.10;;
10440;SDS011;5268;49.346;9.522;2024-01-16T09:22:29;8.10;;;5.70;;
10440;SDS011;5268;49.346;9.522;2024-01-16T09:27:32;7.27;;;4.60;;
10440;SDS011;5268;49.346;9.522;2024-01-16T09:32:34;10.07;;;6.33;;
10440;SDS011;5268;49.346;9.522;2024-01-16T09:37:37;9.13;;;5.00;;
10440;SDS011;5268;49.346;9.522;2024-01-16T09:42:41;5.82;;;4.10;;
10440;SDS011;5268;49.346;9.522;2024-01-16T09:47:43;7.63;;;4.60;;
10440;SDS011;5268;49.346;9.522;2024-01-16T09:52:46;7.63;;;4.60;;
10440;SDS011;5268;49.346;9.522;2024-01-16T09:57:51;5.80;;;4.10;;
10440;SDS011;5268;49.346;9.522;2024-01-16T10:02:54;6.40;;;3.90;;
10440;SDS011;5268;49.346;9.522;2024-01-16T10:07:58;7.53;;;4.13;;
10440;SDS011;5268;49.346;9.522;2024-01-16T10:13:02;8.90;;;4.35;;
10440;SDS011;5268;49.346;9.522;2024-01-16T10:18:05;9.73;;;5.50;;
10440;SDS011;5268;49.346;9.522;2024-01-16T10:23:24;6.45;;;4.47;;
10440;SDS011;5268;49.346;9.522;2024-01-16T10:28:28;6.05;;;4.00;;
10440;SDS011;5268;49.346;9.522;2024-01-16T10:33:30;6.32;;;3.90;;
10440;SDS011;5268;49.346;9.522;2024-01-16T10:38:32;5.60;;;3.78;;
10440;SDS011;5268;49.346;9.522;2024-01-16T10:43:37;9.30;;;5.38;;
10440;SDS011;5268;49.346;9.522;2024-01-16T10:48:40;7.43;;;4.93;;
10440;SDS011;5268;49.346;9.522;2024-01-16T10:53:44;6.03;;;3.88;;
10440;SDS011;5268;49.346;9.522;2024-01-16T10:58:50;6.63;;;4.30;;
10440;SDS011;5268;49.346;9.522;2024-01-16T11:03:58;7.18;;;4.80;;
10440;SDS011;5268;49.346;9.522;2024-01-16T11:09:02;9.10;;;5.72;;
10440;SDS011;5268;49.346;9.522;2024-01-16T11:14:06;7.75;;;4.43;;
10440;SDS011;5268;49.346;9.522;2024-01-16T11:19:08;7.30;;;5.10;;
10440;SDS011;5268;49.346;9.522;2024-01-16T11:24:11;6.28;;;4.28;;
10440;SDS011;5268;49.346;9.522;2024-01-16T11:34:54;8.07;;;4.50;;
10440;SDS011;5268;49.346;9.522;2024-01-16T11:50:53;7.25;;;4.85;;
10440;SDS011;5268;49.346;9.522;2024-01-16T11:55:58;7.50;;;5.03;;
10440;SDS011;5268;49.346;9.522;2024-01-16T12:01:25;5.78;;;4.03;;
10440;SDS011;5268;49.346;9.522;2024-01-16T12:06:28;7.50;;;4.70;;
10440;SDS011;5268;49.346;9.522;2024-01-16T12:11:30;8.23;;;5.68;;
10440;SDS011;5268;49.346;9.522;2024-01-16T12:16:33;11.40;;;7.18;;
10440;SDS011;5268;49.346;9.522;2024-01-16T12:21:35;7.30;;;4.75;;
10440;SDS011;5268;49.346;9.522;2024-01-16T12:26:41;7.47;;;3.85;;
10440;SDS011;5268;49.346;9.522;2024-01-16T12:31:45;7.25;;;4.30;;
10440;SDS011;5268;49.346;9.522;2024-01-16T12:36:46;6.03;;;4.60;;
10440;SDS011;5268;49.346;9.522;2024-01-16T12:42:05;5.88;;;3.95;;
10440;SDS011;5268;49.346;9.522;2024-01-16T12:47:08;7.15;;;4.15;;
10440;SDS011;5268;49.346;9.522;2024-01-16T12:52:20;7.75;;;4.40;;
10440;SDS011;5268;49.346;9.522;2024-01-16T12:57:26;7.00;;;4.80;;
10440;SDS011;5268;49.346;9.522;2024-01-16T13:02:30;8.10;;;4.85;;
10440;SDS011;5268;49.346;9.522;2024-01-16T13:07:33;21.20;;;16.02;;
10440;SDS011;5268;49.346;9.522;2024-01-16T13:12:35;9.60;;;5.00;;
10440;SDS011;5268;49.346;9.522;2024-01-16T13:17:39;7.18;;;4.57;;
10440;SDS011;5268;49.346;9.522;2024-01-16T13:22:42;6.30;;;3.92;;
10440;SDS011;5268;49.346;9.522;2024-01-16T13:27:44;7.50;;;4.30;;
10440;SDS011;5268;49.346;9.522;2024-01-16T13:32:47;8.50;;;4.30;;
10440;SDS011;5268;49.346;9.522;2024-01-16T13:37:49;7.50;;;4.40;;
10440;SDS011;5268;49.346;9.522;2024-01-16T13:42:51;7.43;;;4.60;;
10440;SDS011;5268;49.346;9.522;2024-01-16T13:47:55;5.50;;;3.38;;
10440;SDS011;5268;49.346;9.522;2024-01-16T13:52:58;6.63;;;3.40;;
10440;SDS011;5268;49.346;9.522;2024-01-16T13:58:00;9.05;;;3.60;;
10440;SDS011;5268;49.346;9.522;2024-01-16T14:03:04;7.70;;;3.50;;
10440;SDS011;5268;49.346;9.522;2024-01-16T14:08:06;5.07;;;3.60;;
10440;SDS011;5268;49.346;9.522;2024-01-16T14:13:12;7.63;;;3.38;;
10440;SDS011;5268;49.346;9.522;2024-01-16T14:18:15;5.60;;;3.30;;
10440;SDS011;5268;49.346;9.522;2024-01-16T14:23:17;5.63;;;3.67;;
10440;SDS011;5268;49.346;9.522;2024-01-16T14:28:20;6.13;;;4.03;;
10440;SDS011;5268;49.346;9.522;2024-01-16T14:33:27;6.88;;;3.63;;
10440;SDS011;5268;49.346;9.522;2024-01-16T14:38:29;5.75;;;3.88;;
10440;SDS011;5268;49.346;9.522;2024-01-16T14:43:31;6.70;;;4.50;;
10440;SDS011;5268;49.346;9.522;2024-01-16T14:48:35;6.20;;;3.60;;
10440;SDS011;5268;49.346;9.522;2024-01-16T14:53:37;6.07;;;3.33;;
10440;SDS011;5268;49.346;9.522;2024-01-16T14:58:39;5.10;;;3.78;;
10440;SDS011;5268;49.346;9.522;2024-01-16T15:03:42;6.65;;;3.90;;
10440;SDS011;5268;49.346;9.522;2024-01-16T15:08:44;5.78;;;3.83;;
10440;SDS011;5268;49.346;9.522;2024-01-16T15:13:48;5.18;;;3.60;;
10440;SDS011;5268;49.346;9.522;2024-01-16T15:18:51;5.70;;;3.75;;
10440;SDS011;5268;49.346;9.522;2024-01-16T15:23:54;9.00;;;4.00;;
10440;SDS011;5268;49.346;9.522;2024-01-16T15:28:56;5.78;;;3.45;;
10440;SDS011;5268;49.346;9.522;2024-01-16T15:33:59;5.47;;;3.53;;
10440;SDS011;5268;49.346;9.522;2024-01-16T15:39:01;4.45;;;3.05;;
10440;SDS011;5268;49.346;9.522;2024-01-16T15:44:04;5.43;;;3.42;;
10440;SDS011;5268;49.346;9.522;2024-01-16T15:49:07;5.65;;;3.42;;
10440;SDS011;5268;49.346;9.522;2024-01-16T15:54:10;6.57;;;3.72;;
10440;SDS011;5268;49.346;9.522;2024-01-16T15:59:17;11.88;;;7.40;;
10440;SDS011;5268;49.346;9.522;2024-01-16T16:04:21;9.85;;;5.55;;
10440;SDS011;5268;49.346;9.522;2024-01-16T16:09:23;6.88;;;4.38;;
10440;SDS011;5268;49.346;9.522;2024-01-16T16:14:27;8.15;;;4.05;;
10440;SDS011;5268;49.346;9.522;2024-01-16T16:19:32;6.95;;;4.95;;
10440;SDS011;5268;49.346;9.522;2024-01-16T16:24:34;5.93;;;4.05;;
10440;SDS011;5268;49.346;9.522;2024-01-16T16:29:36;8.93;;;4.37;;
10440;SDS011;5268;49.346;9.522;2024-01-16T16:34:40;9.13;;;5.47;;
10440;SDS011;5268;49.346;9.522;2024-01-16T16:39:42;7.13;;;5.00;;
10440;SDS011;5268;49.346;9.522;2024-01-16T16:44:45;9.93;;;6.53;;
10440;SDS011;5268;49.346;9.522;2024-01-16T16:49:49;12.80;;;8.67;;
10440;SDS011;5268;49.346;9.522;2024-01-16T16:54:51;9.27;;;6.13;;
10440;SDS011;5268;49.346;9.522;2024-01-16T16:59:53;6.70;;;5.00;;
10440;SDS011;5268;49.346;9.522;2024-01-16T17:04:56;7.13;;;4.87;;
10440;SDS011;5268;49.346;9.522;2024-01-16T17:09:59;11.03;;;6.20;;
10440;SDS011;5268;49.346;9.522;2024-01-16T17:15:01;13.70;;;8.40;;
10440;SDS011;5268;49.346;9.522;2024-01-16T17:20:07;9.33;;;6.63;;
10440;SDS011;5268;49.346;9.522;2024-01-16T17:25:12;10.83;;;6.90;;
10440;SDS011;5268;49.346;9.522;2024-01-16T17:30:15;11.60;;;7.67;;
10440;SDS011;5268;49.346;9.522;2024-01-16T17:35:18;11.83;;;8.30;;
10440;SDS011;5268;49.346;9.522;2024-01-16T17:40:21;11.70;;;7.00;;
10440;SDS011;5268;49.346;9.522;2024-01-16T17:45:24;14.27;;;8.67;;
10440;SDS011;5268;49.346;9.522;2024-01-16T17:50:27;10.90;;;8.20;;
10440;SDS011;5268;49.346;9.522;2024-01-16T17:55:30;13.17;;;8.50;;
10440;SDS011;5268;49.346;9.522;2024-01-16T18:00:33;10.10;;;7.40;;
10440;SDS011;5268;49.346;9.522;2024-01-16T18:05:37;11.03;;;7.40;;
10440;SDS011;5268;49.346;9.522;2024-01-16T18:10:39;9.97;;;6.90;;
10440;SDS011;5268;49.346;9.522;2024-01-16T18:15:42;16.80;;;10.60;;
10440;SDS011;5268;49.346;9.522;2024-01-16T18:20:45;15.93;;;9.03;;
10440;SDS011;5268;49.346;9.522;2024-01-16T18:25:47;13.77;;;8.33;;
10440;SDS011;5268;49.346;9.522;2024-01-16T18:30:49;12.97;;;7.50;;
10440;SDS011;5268;49.346;9.522;2024-01-16T18:35:53;11.40;;;6.80;;
10440;SDS011;5268;49.346;9.522;2024-01-16T18:40:59;9.17;;;6.27;;
10440;SDS011;5268;49.346;9.522;2024-01-16T18:46:04;11.03;;;7.03;;
10440;SDS011;5268;49.346;9.522;2024-01-16T18:51:07;16.43;;;9.40;;
10440;SDS011;5268;49.346;9.522;2024-01-16T18:56:12;15.73;;;9.47;;
10440;SDS011;5268;49.346;9.522;2024-01-16T19:01:14;11.83;;;7.60;;
10440;SDS011;5268;49.346;9.522;2024-01-16T19:06:18;15.23;;;7.47;;
10440;SDS011;5268;49.346;9.522;2024-01-16T19:11:22;8.37;;;4.83;;
10440;SDS011;5268;49.346;9.522;2024-01-16T19:16:24;7.80;;;5.07;;
10440;SDS011;5268;49.346;9.522;2024-01-16T19:21:28;9.33;;;5.73;;
10440;SDS011;5268;49.346;9.522;2024-01-16T19:26:30;15.80;;;8.93;;
10440;SDS011;5268;49.346;9.522;2024-01-16T19:31:32;17.27;;;9.07;;
10440;SDS011;5268;49.346;9.522;2024-01-16T19:36:36;18.37;;;9.37;;
10440;SDS011;5268;49.346;9.522;2024-01-16T19:41:40;19.77;;;11.23;;
10440;SDS011;5268;49.346;9.522;2024-01-16T19:46:43;23.33;;;11.60;;
10440;SDS011;5268;49.346;9.522;2024-01-16T19:51:46;33.87;;;16.67;;
10440;SDS011;5268;49.346;9.522;2024-01-16T19:56:48;13.70;;;7.20;;
10440;SDS011;5268;49.346;9.522;2024-01-16T20:01:51;14.30;;;9.80;;
10440;SDS011;5268;49.346;9.522;2024-01-16T20:06:54;14.77;;;7.60;;
10440;SDS011;5268;49.346;9.522;2024-01-16T20:11:56;12.90;;;7.07;;
10440;SDS011;5268;49.346;9.522;2024-01-16T20:17:01;14.00;;;7.63;;
10440;SDS011;5268;49.346;9.522;2024-01-16T20:22:05;11.37;;;7.30;;
10440;SDS011;5268;49.346;9.522;2024-01-16T20:27:07;12.13;;;6.70;;
10440;SDS011;5268;49.346;9.522;2024-01-16T20:32:09;11.93;;;6.87;;
10440;SDS011;5268;49.346;9.522;2024-01-16T20:37:12;12.33;;;7.47;;
10440;SDS011;5268;49.346;9.522;2024-01-16T20:42:14;11.27;;;7.27;;
10440;SDS011;5268;49.346;9.522;2024-01-16T20:47:16;13.00;;;7.67;;
10440;SDS011;5268;49.346;9.522;2024-01-16T20:52:20;10.97;;;7.00;;
10440;SDS011;5268;49.346;9.522;2024-01-16T20:57:22;12.10;;;7.03;;
10440;SDS011;5268;49.346;9.522;2024-01-16T21:02:24;10.80;;;7.60;;
10440;SDS011;5268;49.346;9.522;2024-01-16T21:07:28;16.30;;;8.80;;
10440;SDS011;5268;49.346;9.522;2024-01-16T21:12:30;14.10;;;9.07;;
10440;SDS011;5268;49.346;9.522;2024-01-16T21:17:32;13.33;;;7.97;;
10440;SDS011;5268;49.346;9.522;2024-01-16T21:22:35;14.23;;;8.17;;
10440;SDS011;5268;49.346;9.522;2024-01-16T21:27:37;9.47;;;6.23;;
10440;SDS011;5268;49.346;9.522;2024-01-16T21:32:39;10.70;;;6.67;;
10440;SDS011;5268;49.346;9.522;2024-01-16T21:37:43;11.13;;;6.93;;
10440;SDS011;5268;49.346;9.522;2024-01-16T21:42:45;11.73;;;7.17;;
10440;SDS011;5268;49.346;9.522;2024-01-16T21:47:47;11.10;;;6.63;;
10440;SDS011;5268;49.346;9.522;2024-01-16T21:52:50;10.80;;;6.80;;
10440;SDS011;5268;49.346;9.522;2024-01-16T21:57:52;10.60;;;6.80;;
10440;SDS011;5268;49.346;9.522;2024-01-16T22:02:56;10.03;;;6.10;;
10440;SDS011;5268;49.346;9.522;2024-01-16T22:08:00;10.30;;;6.23;;
10440;SDS011;5268;49.346;9.522;2024-01-16T22:13:02;20.53;;;8.90;;
10440;SDS011;5268;49.346;9.522;2024-01-16T22:18:04;17.87;;;8.83;;
10440;SDS011;5268;49.346;9.522;2024-01-16T22:23:08;16.03;;;8.47;;
10440;SDS011;5268;49.346;9.522;2024-01-16T22:28:10;11.17;;;7.13;;
10440;SDS011;5268;49.346;9.522;2024-01-16T22:33:12;12.50;;;6.50;;
10440;SDS011;5268;49.346;9.522;2024-01-16T22:38:16;10.37;;;6.47;;
10440;SDS011;5268;49.346;9.522;2024-01-16T22:43:18;11.73;;;7.10;;
10440;SDS011;5268;49.346;9.522;2024-01-16T22:48:20;8.97;;;6.20;;
10440;SDS011;5268;49.346;9.522;2024-01-16T22:53:23;10.67;;;6.70;;
